• Join FlightAware (Why Join?)
  • Login
  • US Flag 
03:44AM EDT


 

Airport Tracker/Info


-or-


 

Live Flight TrackerFlight Track Log ✈ AMF3324 ✈ 03-Jan-2014 ✈ KBGM - KBUF

Flight Track Log - Related Links

Times and Time Zones

All times are in EST time to prevent confusion due to time zone crossing. See the AMF3324 flight status page for this flight to view local times or setup timezone preferences in your user account.

Time Position Orientation Groundspeed Altitude Reporting Facility
EST Latitude Longitude Course Direction KTS MPH feet Rate Location/Type
11:06AM 42.2328 -76.1394 286° West 142 163 7,500  Level Cleveland Center
11:07AM 42.2442 -76.1922 286° West 152 175 8,100 240 Climbing Cleveland Center
11:08AM 42.2617 -76.2544 291° West 164 189 8,100 -120 Level Cleveland Center
11:09AM 42.2797 -76.3147 292° West 171 197 7,900 -60 Descending Cleveland Center
11:10AM 42.2961 -76.3753 290° West 172 198 8,000  Climbing Cleveland Center
11:11AM 42.3136 -76.4347 292° West 172 198 8,000  Level Cleveland Center
11:12AM 42.3286 -76.4961 288° West 172 198 8,000 -60 Level Cleveland Center
11:13AM 42.3458 -76.5683 288° West 170 196 7,900  Descending Cleveland Center
11:14AM 42.3647 -76.6247 294° West 166 191 8,000  Climbing Cleveland Center
11:15AM 42.3908 -76.6772 304° West 166 191 8,000  Level Cleveland Center
11:16AM 42.4103 -76.7353 294° West 170 196 8,000 -60 Level Cleveland Center
11:17AM 42.4333 -76.7900 300° West 168 193 7,900  Descending Cleveland Center
11:18AM 42.4569 -76.8447 292° West 168 193 8,000  Climbing Cleveland Center
11:19AM 42.4786 -76.8994 298° West 165 190 7,900 -60 Descending Cleveland Center
11:20AM 42.5028 -76.9536 301° West 168 193 7,900 120 Level Cleveland Center
11:21AM 42.5142 -76.9811 299° West 167 192 8,100 60 Climbing Cleveland Center
11:21AM 42.5253 -77.0086 299° West 167 192 8,000  Descending Cleveland Center
11:22AM 42.5339 -77.0375 292° West 167 192 8,100 60 Climbing Cleveland Center
11:22AM 42.5428 -77.0672 292° West 168 193 8,100 60 Level Cleveland Center
11:23AM 42.5544 -77.1031 294° West 169 194 8,200  Climbing Cleveland Center
11:23AM 42.5681 -77.1336 301° West 166 191 8,100 -120 Descending Cleveland Center
11:24AM 42.5756 -77.1514 300° West 168 193 8,100 -120 Level Cleveland Center
11:24AM 42.5881 -77.1919 293° West 169 194 8,000 -240 Descending Cleveland Center
11:25AM 42.5922 -77.2131 285° West 172 198 7,900 60 Descending Cleveland Center
11:25AM 42.6069 -77.2508 298° West 171 197 8,100 180 Climbing Cleveland Center
11:26AM 42.6119 -77.2697 290° West 168 193 8,100 -120 Level Cleveland Center
11:26AM 42.6269 -77.3075 298° West 168 193 8,000 -120 Descending Cleveland Center
11:27AM 42.6317 -77.3264 289° West 168 193 8,000  Level Cleveland Center
11:27AM 42.6456 -77.3667 295° West 170 196 8,000  Level Cleveland Center
11:28AM 42.6519 -77.3922 289° West 172 198 8,000  Level Cleveland Center
11:28AM 42.6606 -77.4275 288° West 170 196 8,000  Level Cleveland Center
11:29AM 42.6667 -77.4533 288° West 171 197 8,000  Level Cleveland Center
11:29AM 42.6756 -77.4917 288° West 171 197 8,000  Level Cleveland Center
11:30AM 42.6783 -77.5053 286° West 170 196 8,000  Level Cleveland Center
11:30AM 42.6978 -77.5428 305° West 169 194 8,000  Level Cleveland Center
11:31AM 42.7042 -77.5639 292° West 162 186 8,000  Level Cleveland Center
11:31AM 42.7183 -77.5983 299° West 167 192 8,000  Level Cleveland Center
11:32AM 42.7261 -77.6186 298° West 166 191 8,000  Level Cleveland Center
11:32AM 42.7453 -77.6633 300° West 167 192 8,000 -120 Level Cleveland Center
11:33AM 42.7517 -77.6772 302° West 171 197 7,900  Descending Cleveland Center
11:33AM 42.7667 -77.7206 295° West 170 196 8,000 180 Climbing Cleveland Center
11:34AM 42.7758 -77.7442 298° West 166 191 8,100  Climbing Cleveland Center
11:35AM 42.7878 -77.7761 297° West 169 194 8,000 -60 Descending Cleveland Center
11:36AM 42.7989 -77.8461 282° West 178 205 8,000 -300 Level Cleveland Center
11:37AM 42.8125 -77.9131 286° West 177 204 7,500 -540 Descending Cleveland Center
11:38AM 42.8264 -77.9783 286° West 185 213 7,000 -600 Descending Cleveland Center
11:39AM 42.8417 -78.0458 287° West 180 207 6,300 -720 Descending Cleveland Center
11:40AM 42.8578 -78.1139 288° West 184 212 5,600 -720 Descending Cleveland Center
11:41AM 42.8778 -78.1769 293° West 188 216 4,900 -660 Descending Cleveland Center
11:42AM 42.8961 -78.2458 290° West 186 214 4,300 -480 Descending Cleveland Center
11:43AM 42.9144 -78.3039 293° West 175 201 4,000 -180 Descending Cleveland Center
11:44AM 42.9350 -78.3653 295° West 171 197 4,000  Level Cleveland Center
11:45AM 42.9519 -78.4281 290° West 170 196 4,000 -120 Level Cleveland Center
11:46AM 42.9681 -78.4883 290° West 175 201 3,800 -600 Descending Cleveland Center
11:47AM 42.9894 -78.5503 295° West 172 198 2,800 -600 Descending Cleveland Center
11:48AM 43.0089 -78.6014 297° West 149 171 2,600 -300 Descending Cleveland Center
11:49AM 43.0011 -78.6433 256° West 127 146 2,200 -300 Descending Cleveland Center
11:50AM 42.9847 -78.6753 235° Southwest 124 143 2,000 -600 Descending Cleveland Center
11:51AM 42.9500 -78.7167 221° Southwest 106 122 900 -840 Descending Buffalo TRACON
11:53AM 42.9333 -78.7167 289° West  Level FlightAware Approximate